sensor_id;sensor_type;location;lat;lon;timestamp;pressure;altitude;pressure_sealevel;temperature;humidity
48244;BME280;34053;51.088;6.572;2023-07-13T00:02:17;100925.41;;;21.25;42.94
48244;BME280;34053;51.088;6.572;2023-07-13T00:05:09;100925.84;;;21.19;42.90
48244;BME280;34053;51.088;6.572;2023-07-13T00:07:59;100924.66;;;21.23;43.06
48244;BME280;34053;51.088;6.572;2023-07-13T00:10:52;100930.31;;;21.18;43.07
48244;BME280;34053;51.088;6.572;2023-07-13T00:13:45;100923.38;;;21.16;43.22
48244;BME280;34053;51.088;6.572;2023-07-13T00:16:37;100927.00;;;21.15;43.17
48244;BME280;34053;51.088;6.572;2023-07-13T00:19:28;100921.34;;;21.06;43.54
48244;BME280;34053;51.088;6.572;2023-07-13T00:22:19;100933.19;;;21.02;43.81
48244;BME280;34053;51.088;6.572;2023-07-13T00:25:11;100937.03;;;20.98;43.57
48244;BME280;34053;51.088;6.572;2023-07-13T00:28:02;100934.34;;;20.98;43.40
48244;BME280;34053;51.088;6.572;2023-07-13T00:30:53;100932.00;;;20.94;43.65
48244;BME280;34053;51.088;6.572;2023-07-13T00:33:44;100936.38;;;20.95;43.64
48244;BME280;34053;51.088;6.572;2023-07-13T00:36:35;100939.47;;;20.88;43.38
48244;BME280;34053;51.088;6.572;2023-07-13T00:39:27;100937.09;;;20.84;44.31
48244;BME280;34053;51.088;6.572;2023-07-13T00:42:17;100934.94;;;20.76;44.70
48244;BME280;34053;51.088;6.572;2023-07-13T00:48:02;100934.25;;;20.72;44.37
48244;BME280;34053;51.088;6.572;2023-07-13T00:50:55;100937.22;;;20.68;44.45
48244;BME280;34053;51.088;6.572;2023-07-13T00:53:47;100927.63;;;20.65;45.09
48244;BME280;34053;51.088;6.572;2023-07-13T00:56:41;100929.16;;;20.69;44.23
48244;BME280;34053;51.088;6.572;2023-07-13T00:59:34;100930.19;;;20.67;44.78
48244;BME280;34053;51.088;6.572;2023-07-13T01:02:28;100932.13;;;20.65;44.54
48244;BME280;34053;51.088;6.572;2023-07-13T01:05:21;100930.47;;;20.62;44.71
48244;BME280;34053;51.088;6.572;2023-07-13T01:08:13;100930.81;;;20.57;44.78
48244;BME280;34053;51.088;6.572;2023-07-13T01:11:03;100923.13;;;20.53;44.92
48244;BME280;34053;51.088;6.572;2023-07-13T01:13:54;100929.09;;;20.56;45.32
48244;BME280;34053;51.088;6.572;2023-07-13T01:16:46;100922.78;;;20.44;45.51
48244;BME280;34053;51.088;6.572;2023-07-13T01:19:44;100927.53;;;20.39;46.01
48244;BME280;34053;51.088;6.572;2023-07-13T01:22:35;100933.06;;;20.36;46.03
48244;BME280;34053;51.088;6.572;2023-07-13T01:25:26;100924.72;;;20.28;46.29
48244;BME280;34053;51.088;6.572;2023-07-13T01:28:17;100920.53;;;20.24;46.92
48244;BME280;34053;51.088;6.572;2023-07-13T01:31:09;100917.88;;;20.24;46.35
48244;BME280;34053;51.088;6.572;2023-07-13T01:34:00;100913.84;;;20.31;45.84
48244;BME280;34053;51.088;6.572;2023-07-13T01:36:51;100913.97;;;20.29;46.17
48244;BME280;34053;51.088;6.572;2023-07-13T01:39:44;100919.41;;;20.28;46.40
48244;BME280;34053;51.088;6.572;2023-07-13T01:42:36;100921.13;;;20.15;46.64
48244;BME280;34053;51.088;6.572;2023-07-13T01:45:27;100933.31;;;20.19;46.20
48244;BME280;34053;51.088;6.572;2023-07-13T01:48:17;100928.28;;;20.14;46.79
48244;BME280;34053;51.088;6.572;2023-07-13T01:51:08;100925.50;;;20.16;46.11
48244;BME280;34053;51.088;6.572;2023-07-13T01:53:59;100928.56;;;20.09;46.58
48244;BME280;34053;51.088;6.572;2023-07-13T01:56:50;100930.19;;;20.12;46.72
48244;BME280;34053;51.088;6.572;2023-07-13T01:59:41;100918.69;;;20.11;46.47
48244;BME280;34053;51.088;6.572;2023-07-13T02:02:32;100920.19;;;20.16;46.43
48244;BME280;34053;51.088;6.572;2023-07-13T02:05:23;100930.06;;;20.13;46.63
48244;BME280;34053;51.088;6.572;2023-07-13T02:08:14;100928.97;;;20.03;47.87
48244;BME280;34053;51.088;6.572;2023-07-13T02:11:04;100925.53;;;19.72;49.49
48244;BME280;34053;51.088;6.572;2023-07-13T02:13:55;100932.38;;;19.47;50.01
48244;BME280;34053;51.088;6.572;2023-07-13T02:16:46;100938.47;;;19.49;49.85
48244;BME280;34053;51.088;6.572;2023-07-13T02:19:39;100931.13;;;19.39;50.62
48244;BME280;34053;51.088;6.572;2023-07-13T02:22:30;100933.25;;;19.48;50.57
48244;BME280;34053;51.088;6.572;2023-07-13T02:25:21;100931.41;;;19.63;49.15
48244;BME280;34053;51.088;6.572;2023-07-13T02:28:12;100936.34;;;19.26;50.96
48244;BME280;34053;51.088;6.572;2023-07-13T02:31:11;100942.06;;;19.48;49.56
48244;BME280;34053;51.088;6.572;2023-07-13T02:34:02;100939.41;;;19.34;51.07
48244;BME280;34053;51.088;6.572;2023-07-13T02:36:54;100940.91;;;19.38;49.73
48244;BME280;34053;51.088;6.572;2023-07-13T02:39:45;100936.06;;;19.45;49.55
48244;BME280;34053;51.088;6.572;2023-07-13T02:42:36;100941.69;;;19.55;49.10
48244;BME280;34053;51.088;6.572;2023-07-13T02:45:27;100939.78;;;19.57;48.79
48244;BME280;34053;51.088;6.572;2023-07-13T02:48:17;100937.34;;;19.54;49.01
48244;BME280;34053;51.088;6.572;2023-07-13T02:51:08;100935.50;;;19.54;49.40
48244;BME280;34053;51.088;6.572;2023-07-13T02:54:03;100946.25;;;19.53;48.85
48244;BME280;34053;51.088;6.572;2023-07-13T02:56:54;100941.88;;;19.52;49.59
48244;BME280;34053;51.088;6.572;2023-07-13T02:59:45;100936.28;;;19.56;48.98
48244;BME280;34053;51.088;6.572;2023-07-13T03:02:36;100940.72;;;19.56;49.11
48244;BME280;34053;51.088;6.572;2023-07-13T03:05:26;100939.56;;;19.31;49.88
48244;BME280;34053;51.088;6.572;2023-07-13T03:08:17;100944.16;;;19.43;49.06
48244;BME280;34053;51.088;6.572;2023-07-13T03:11:15;100942.28;;;19.45;48.74
48244;BME280;34053;51.088;6.572;2023-07-13T03:14:07;100958.50;;;19.41;48.75
48244;BME280;34053;51.088;6.572;2023-07-13T03:16:58;100952.81;;;19.32;49.22
48244;BME280;34053;51.088;6.572;2023-07-13T03:19:49;100952.03;;;19.30;49.48
48244;BME280;34053;51.088;6.572;2023-07-13T03:22:41;100958.78;;;19.36;49.32
48244;BME280;34053;51.088;6.572;2023-07-13T03:25:32;100955.06;;;19.24;49.95
48244;BME280;34053;51.088;6.572;2023-07-13T03:28:23;100959.13;;;19.30;49.39
48244;BME280;34053;51.088;6.572;2023-07-13T03:31:16;100951.94;;;19.32;49.06
48244;BME280;34053;51.088;6.572;2023-07-13T03:34:08;100960.25;;;19.11;49.85
48244;BME280;34053;51.088;6.572;2023-07-13T03:36:58;100953.94;;;18.98;50.93
48244;BME280;34053;51.088;6.572;2023-07-13T03:39:49;100950.28;;;18.68;51.86
48244;BME280;34053;51.088;6.572;2023-07-13T03:42:40;100955.38;;;18.41;53.52
48244;BME280;34053;51.088;6.572;2023-07-13T03:45:31;100956.63;;;18.66;51.65
48244;BME280;34053;51.088;6.572;2023-07-13T03:48:22;100958.28;;;18.36;53.74
48244;BME280;34053;51.088;6.572;2023-07-13T03:51:14;100963.25;;;18.11;54.60
48244;BME280;34053;51.088;6.572;2023-07-13T03:54:06;100967.84;;;17.91;55.70
48244;BME280;34053;51.088;6.572;2023-07-13T03:56:57;100966.06;;;17.74;56.00
48244;BME280;34053;51.088;6.572;2023-07-13T03:59:47;100973.97;;;17.91;55.61
48244;BME280;34053;51.088;6.572;2023-07-13T04:02:38;100969.94;;;17.84;55.79
48244;BME280;34053;51.088;6.572;2023-07-13T04:05:29;100970.53;;;17.73;56.65
48244;BME280;34053;51.088;6.572;2023-07-13T04:08:20;100976.25;;;17.48;57.86
48244;BME280;34053;51.088;6.572;2023-07-13T04:11:11;100982.22;;;17.36;58.56
48244;BME280;34053;51.088;6.572;2023-07-13T04:14:02;100979.22;;;17.24;58.86
48244;BME280;34053;51.088;6.572;2023-07-13T04:16:53;100982.91;;;17.39;58.58
48244;BME280;34053;51.088;6.572;2023-07-13T04:19:45;100986.34;;;17.24;58.96
48244;BME280;34053;51.088;6.572;2023-07-13T04:22:36;100988.13;;;17.23;59.38
48244;BME280;34053;51.088;6.572;2023-07-13T04:25:27;100985.78;;;17.35;58.79
48244;BME280;34053;51.088;6.572;2023-07-13T04:28:20;100993.44;;;17.23;59.42
48244;BME280;34053;51.088;6.572;2023-07-13T04:31:11;100993.38;;;17.25;59.57
48244;BME280;34053;51.088;6.572;2023-07-13T04:34:02;100995.56;;;16.80;61.49
48244;BME280;34053;51.088;6.572;2023-07-13T04:36:53;100996.13;;;16.67;62.06
48244;BME280;34053;51.088;6.572;2023-07-13T04:39:44;101004.25;;;16.64;61.99
48244;BME280;34053;51.088;6.572;2023-07-13T04:42:34;100999.03;;;16.44;63.14
48244;BME280;34053;51.088;6.572;2023-07-13T04:45:25;101000.66;;;16.65;63.02
48244;BME280;34053;51.088;6.572;2023-07-13T04:48:17;101005.13;;;16.46;64.01
48244;BME280;34053;51.088;6.572;2023-07-13T04:51:07;101003.09;;;16.51;63.81
48244;BME280;34053;51.088;6.572;2023-07-13T04:53:58;100999.31;;;16.57;63.57
48244;BME280;34053;51.088;6.572;2023-07-13T04:56:49;101000.16;;;16.38;64.51
48244;BME280;34053;51.088;6.572;2023-07-13T04:59:40;101003.53;;;16.42;64.64
48244;BME280;34053;51.088;6.572;2023-07-13T05:02:30;101004.25;;;16.26;65.29
48244;BME280;34053;51.088;6.572;2023-07-13T05:05:24;101004.03;;;16.31;65.18
48244;BME280;34053;51.088;6.572;2023-07-13T05:08:15;101007.56;;;16.31;65.44
48244;BME280;34053;51.088;6.572;2023-07-13T05:11:06;101010.63;;;16.22;66.19
48244;BME280;34053;51.088;6.572;2023-07-13T05:13:57;101014.78;;;16.47;64.95
48244;BME280;34053;51.088;6.572;2023-07-13T05:16:48;101019.63;;;16.37;65.57
48244;BME280;34053;51.088;6.572;2023-07-13T05:19:39;101024.00;;;16.38;65.97
48244;BME280;34053;51.088;6.572;2023-07-13T05:22:30;101024.81;;;16.40;65.73
48244;BME280;34053;51.088;6.572;2023-07-13T05:25:20;101027.22;;;16.45;66.40
48244;BME280;34053;51.088;6.572;2023-07-13T05:28:12;101028.28;;;16.41;66.27
48244;BME280;34053;51.088;6.572;2023-07-13T05:31:02;101035.19;;;16.45;66.73
48244;BME280;34053;51.088;6.572;2023-07-13T05:33:53;101040.97;;;16.34;67.33
48244;BME280;34053;51.088;6.572;2023-07-13T05:36:44;101039.13;;;16.55;66.05
48244;BME280;34053;51.088;6.572;2023-07-13T05:39:35;101032.81;;;16.39;67.32
48244;BME280;34053;51.088;6.572;2023-07-13T05:42:26;101037.97;;;16.42;67.22
48244;BME280;34053;51.088;6.572;2023-07-13T05:45:17;101053.91;;;16.59;66.55
48244;BME280;34053;51.088;6.572;2023-07-13T05:48:07;101057.72;;;16.53;67.40
48244;BME280;34053;51.088;6.572;2023-07-13T05:50:58;101059.94;;;16.63;67.57
48244;BME280;34053;51.088;6.572;2023-07-13T05:53:49;101057.28;;;16.63;67.15
48244;BME280;34053;51.088;6.572;2023-07-13T05:56:40;101056.78;;;16.74;67.00
48244;BME280;34053;51.088;6.572;2023-07-13T05:59:31;101056.78;;;16.74;67.46
48244;BME280;34053;51.088;6.572;2023-07-13T06:02:22;101055.91;;;16.92;66.15
48244;BME280;34053;51.088;6.572;2023-07-13T06:05:13;101067.31;;;16.75;67.23
48244;BME280;34053;51.088;6.572;2023-07-13T06:08:04;101060.69;;;16.84;66.94
48244;BME280;34053;51.088;6.572;2023-07-13T06:11:02;101064.16;;;16.86;67.85
48244;BME280;34053;51.088;6.572;2023-07-13T06:13:53;101068.03;;;16.98;66.83
48244;BME280;34053;51.088;6.572;2023-07-13T06:16:44;101065.28;;;16.99;67.32
48244;BME280;34053;51.088;6.572;2023-07-13T06:19:36;101067.44;;;16.91;67.22
48244;BME280;34053;51.088;6.572;2023-07-13T06:22:27;101067.00;;;17.01;67.22
48244;BME280;34053;51.088;6.572;2023-07-13T06:25:18;101067.22;;;16.96;67.51
48244;BME280;34053;51.088;6.572;2023-07-13T06:28:09;101072.25;;;17.02;66.87
48244;BME280;34053;51.088;6.572;2023-07-13T06:31:00;101075.63;;;17.23;66.15
48244;BME280;34053;51.088;6.572;2023-07-13T06:33:51;101072.03;;;17.24;66.81
48244;BME280;34053;51.088;6.572;2023-07-13T06:36:43;101077.81;;;17.33;66.53
48244;BME280;34053;51.088;6.572;2023-07-13T06:39:34;101079.00;;;17.27;65.80
48244;BME280;34053;51.088;6.572;2023-07-13T06:42:25;101076.41;;;17.25;66.74
48244;BME280;34053;51.088;6.572;2023-07-13T06:45:16;101081.41;;;17.31;66.42
48244;BME280;34053;51.088;6.572;2023-07-13T06:48:07;101082.31;;;17.50;65.63
48244;BME280;34053;51.088;6.572;2023-07-13T06:50:58;101089.22;;;17.35;66.54
48244;BME280;34053;51.088;6.572;2023-07-13T06:53:49;101101.91;;;17.28;66.83
48244;BME280;34053;51.088;6.572;2023-07-13T06:56:40;101107.88;;;17.33;66.57
48244;BME280;34053;51.088;6.572;2023-07-13T06:59:31;101103.81;;;17.26;66.66
48244;BME280;34053;51.088;6.572;2023-07-13T07:02:22;101111.53;;;17.30;66.95
48244;BME280;34053;51.088;6.572;2023-07-13T07:05:13;101095.22;;;17.38;66.62
48244;BME280;34053;51.088;6.572;2023-07-13T07:08:04;101103.22;;;17.56;66.51
48244;BME280;34053;51.088;6.572;2023-07-13T07:10:55;101103.81;;;17.61;65.99
48244;BME280;34053;51.088;6.572;2023-07-13T07:13:45;101117.78;;;17.65;66.07
48244;BME280;34053;51.088;6.572;2023-07-13T07:16:36;101109.06;;;17.80;65.33
48244;BME280;34053;51.088;6.572;2023-07-13T07:19:29;101118.44;;;17.87;65.13
48244;BME280;34053;51.088;6.572;2023-07-13T07:22:21;101115.09;;;17.84;65.94
48244;BME280;34053;51.088;6.572;2023-07-13T07:25:12;101112.81;;;17.76;65.90
48244;BME280;34053;51.088;6.572;2023-07-13T07:28:03;101117.03;;;17.62;66.27
48244;BME280;34053;51.088;6.572;2023-07-13T07:30:55;101107.25;;;17.63;66.41
48244;BME280;34053;51.088;6.572;2023-07-13T07:33:47;101116.16;;;17.62;66.74
48244;BME280;34053;51.088;6.572;2023-07-13T07:36:37;101116.06;;;17.81;66.16
48244;BME280;34053;51.088;6.572;2023-07-13T07:39:28;101119.19;;;17.89;65.81
48244;BME280;34053;51.088;6.572;2023-07-13T07:42:19;101121.16;;;18.03;65.39
48244;BME280;34053;51.088;6.572;2023-07-13T07:45:10;101112.63;;;18.14;65.20
48244;BME280;34053;51.088;6.572;2023-07-13T07:48:04;101110.75;;;18.16;66.48
48244;BME280;34053;51.088;6.572;2023-07-13T07:50:55;101114.84;;;18.06;66.36
48244;BME280;34053;51.088;6.572;2023-07-13T07:53:47;101126.09;;;18.11;65.99
48244;BME280;34053;51.088;6.572;2023-07-13T07:56:38;101129.06;;;18.05;65.80
48244;BME280;34053;51.088;6.572;2023-07-13T07:59:28;101126.41;;;18.05;66.17
48244;BME280;34053;51.088;6.572;2023-07-13T08:02:19;101128.88;;;17.90;66.43
48244;BME280;34053;51.088;6.572;2023-07-13T08:05:10;101126.25;;;18.08;66.07
48244;BME280;34053;51.088;6.572;2023-07-13T08:08:02;101120.59;;;18.14;65.97
48244;BME280;34053;51.088;6.572;2023-07-13T08:10:53;101124.16;;;18.31;64.92
48244;BME280;34053;51.088;6.572;2023-07-13T08:13:43;101120.81;;;18.27;65.52
48244;BME280;34053;51.088;6.572;2023-07-13T08:16:34;101124.69;;;18.37;65.21
48244;BME280;34053;51.088;6.572;2023-07-13T08:19:25;101118.94;;;18.29;64.93
48244;BME280;34053;51.088;6.572;2023-07-13T08:22:16;101116.78;;;18.02;66.53
48244;BME280;34053;51.088;6.572;2023-07-13T08:25:07;101119.72;;;18.31;65.49
48244;BME280;34053;51.088;6.572;2023-07-13T08:27:58;101125.13;;;18.30;65.91
48244;BME280;34053;51.088;6.572;2023-07-13T08:30:49;101121.13;;;18.21;65.92
48244;BME280;34053;51.088;6.572;2023-07-13T08:33:40;101124.53;;;18.40;65.50
48244;BME280;34053;51.088;6.572;2023-07-13T08:36:34;101116.09;;;18.50;65.40
48244;BME280;34053;51.088;6.572;2023-07-13T08:39:24;101109.44;;;18.41;65.76
48244;BME280;34053;51.088;6.572;2023-07-13T08:42:37;101115.47;;;18.45;65.45
48244;BME280;34053;51.088;6.572;2023-07-13T08:45:32;101114.06;;;18.37;65.47
48244;BME280;34053;51.088;6.572;2023-07-13T08:48:37;101105.47;;;18.50;65.27
48244;BME280;34053;51.088;6.572;2023-07-13T08:54:44;101109.56;;;18.55;64.63
48244;BME280;34053;51.088;6.572;2023-07-13T08:57:36;101107.00;;;18.54;63.95
48244;BME280;34053;51.088;6.572;2023-07-13T09:00:41;101104.25;;;18.55;64.40
48244;BME280;34053;51.088;6.572;2023-07-13T09:03:43;101104.63;;;18.65;63.71
48244;BME280;34053;51.088;6.572;2023-07-13T09:09:50;101109.66;;;18.86;62.78
48244;BME280;34053;51.088;6.572;2023-07-13T09:16:24;101118.56;;;18.85;61.80
48244;BME280;34053;51.088;6.572;2023-07-13T09:19:21;101126.66;;;18.83;61.81
48244;BME280;34053;51.088;6.572;2023-07-13T09:22:18;101126.81;;;18.80;61.80
48244;BME280;34053;51.088;6.572;2023-07-13T09:25:34;101125.72;;;18.84;61.18
48244;BME280;34053;51.088;6.572;2023-07-13T09:28:27;101123.00;;;19.02;60.97
48244;BME280;34053;51.088;6.572;2023-07-13T09:31:34;101113.66;;;18.95;61.39
48244;BME280;34053;51.088;6.572;2023-07-13T09:34:28;101115.59;;;19.07;61.06
48244;BME280;34053;51.088;6.572;2023-07-13T09:37:29;101119.03;;;19.25;60.43
48244;BME280;34053;51.088;6.572;2023-07-13T09:40:30;101122.78;;;19.37;59.97
48244;BME280;34053;51.088;6.572;2023-07-13T09:43:26;101127.34;;;19.19;59.53
48244;BME280;34053;51.088;6.572;2023-07-13T09:46:22;101119.03;;;19.25;58.94
48244;BME280;34053;51.088;6.572;2023-07-13T09:49:13;101133.44;;;19.37;59.19
48244;BME280;34053;51.088;6.572;2023-07-13T09:52:06;101129.22;;;19.33;59.11
48244;BME280;34053;51.088;6.572;2023-07-13T09:54:57;101121.69;;;19.56;59.15
48244;BME280;34053;51.088;6.572;2023-07-13T09:57:51;101119.44;;;19.64;58.22
48244;BME280;34053;51.088;6.572;2023-07-13T10:00:54;101135.38;;;19.80;58.15
48244;BME280;34053;51.088;6.572;2023-07-13T10:03:53;101117.25;;;19.56;56.56
48244;BME280;34053;51.088;6.572;2023-07-13T10:06:45;101132.03;;;19.76;57.38
48244;BME280;34053;51.088;6.572;2023-07-13T10:09:36;101135.28;;;19.81;57.81
48244;BME280;34053;51.088;6.572;2023-07-13T10:12:28;101129.28;;;19.78;57.45
48244;BME280;34053;51.088;6.572;2023-07-13T10:15:21;101131.53;;;19.70;57.86
48244;BME280;34053;51.088;6.572;2023-07-13T10:18:12;101126.22;;;19.86;57.61
48244;BME280;34053;51.088;6.572;2023-07-13T10:21:20;101143.44;;;20.09;57.00
48244;BME280;34053;51.088;6.572;2023-07-13T10:24:17;101132.78;;;20.09;56.81
48244;BME280;34053;51.088;6.572;2023-07-13T10:27:33;101132.16;;;20.20;56.67
48244;BME280;34053;51.088;6.572;2023-07-13T10:30:28;101133.56;;;20.11;56.53
48244;BME280;34053;51.088;6.572;2023-07-13T10:33:20;101132.72;;;20.25;57.19
48244;BME280;34053;51.088;6.572;2023-07-13T10:39:04;101125.31;;;20.44;56.22
48244;BME280;34053;51.088;6.572;2023-07-13T10:42:00;101125.59;;;20.54;55.46
48244;BME280;34053;51.088;6.572;2023-07-13T10:44:51;101134.72;;;20.50;55.61
48244;BME280;34053;51.088;6.572;2023-07-13T10:47:43;101138.53;;;20.46;54.43
48244;BME280;34053;51.088;6.572;2023-07-13T10:50:34;101139.47;;;20.45;54.74
48244;BME280;34053;51.088;6.572;2023-07-13T10:53:29;101142.06;;;20.61;54.69
48244;BME280;34053;51.088;6.572;2023-07-13T10:56:28;101137.84;;;20.71;53.90
48244;BME280;34053;51.088;6.572;2023-07-13T10:59:27;101142.06;;;20.75;54.17
48244;BME280;34053;51.088;6.572;2023-07-13T11:02:26;101146.06;;;20.83;53.02
48244;BME280;34053;51.088;6.572;2023-07-13T11:08:36;101154.13;;;20.96;53.50
48244;BME280;34053;51.088;6.572;2023-07-13T11:11:36;101146.63;;;20.73;53.52
48244;BME280;34053;51.088;6.572;2023-07-13T11:14:42;101140.81;;;20.81;53.07
48244;BME280;34053;51.088;6.572;2023-07-13T11:17:35;101143.19;;;20.86;53.27
48244;BME280;34053;51.088;6.572;2023-07-13T11:20:38;101145.09;;;20.84;53.62
48244;BME280;34053;51.088;6.572;2023-07-13T11:23:30;101144.88;;;20.87;53.47
48244;BME280;34053;51.088;6.572;2023-07-13T11:32:24;101125.16;;;21.04;52.66
48244;BME280;34053;51.088;6.572;2023-07-13T11:35:23;101135.28;;;21.26;52.71
48244;BME280;34053;51.088;6.572;2023-07-13T11:38:21;101126.34;;;21.13;52.33
48244;BME280;34053;51.088;6.572;2023-07-13T11:41:21;101125.19;;;21.17;52.10
48244;BME280;34053;51.088;6.572;2023-07-13T11:44:16;101120.97;;;21.27;51.71
48244;BME280;34053;51.088;6.572;2023-07-13T11:47:14;101126.38;;;21.53;50.79
48244;BME280;34053;51.088;6.572;2023-07-13T11:50:21;101122.16;;;21.63;51.11
48244;BME280;34053;51.088;6.572;2023-07-13T11:53:12;101126.09;;;21.30;50.33
48244;BME280;34053;51.088;6.572;2023-07-13T11:56:03;101128.16;;;21.67;49.29
48244;BME280;34053;51.088;6.572;2023-07-13T11:58:57;101119.41;;;21.78;49.54
48244;BME280;34053;51.088;6.572;2023-07-13T12:01:54;101120.50;;;21.88;49.48
48244;BME280;34053;51.088;6.572;2023-07-13T12:04:45;101125.84;;;22.01;48.49
48244;BME280;34053;51.088;6.572;2023-07-13T12:07:36;101118.69;;;21.89;48.57
48244;BME280;34053;51.088;6.572;2023-07-13T12:10:30;101117.63;;;22.17;48.13
48244;BME280;34053;51.088;6.572;2023-07-13T12:13:23;101126.41;;;22.06;48.24
48244;BME280;34053;51.088;6.572;2023-07-13T12:16:28;101121.38;;;21.89;48.36
48244;BME280;34053;51.088;6.572;2023-07-13T12:19:25;101113.44;;;22.13;48.03
48244;BME280;34053;51.088;6.572;2023-07-13T12:22:18;101101.69;;;22.15;48.08
48244;BME280;34053;51.088;6.572;2023-07-13T12:25:11;101096.13;;;22.31;46.88
48244;BME280;34053;51.088;6.572;2023-07-13T12:29:05;101108.44;;;22.47;46.79
48244;BME280;34053;51.088;6.572;2023-07-13T12:31:41;101105.09;;;22.56;46.70
48244;BME280;34053;51.088;6.572;2023-07-13T12:34:51;101110.59;;;22.79;46.01
48244;BME280;34053;51.088;6.572;2023-07-13T12:37:43;101112.31;;;22.80;44.59
48244;BME280;34053;51.088;6.572;2023-07-13T12:40:34;101108.84;;;22.91;45.27
48244;BME280;34053;51.088;6.572;2023-07-13T12:43:33;101102.59;;;23.03;44.69
48244;BME280;34053;51.088;6.572;2023-07-13T12:46:28;101104.59;;;23.13;44.36
48244;BME280;34053;51.088;6.572;2023-07-13T12:49:23;101104.84;;;23.34;44.82
48244;BME280;34053;51.088;6.572;2023-07-13T12:52:21;101104.78;;;23.47;44.58
48244;BME280;34053;51.088;6.572;2023-07-13T12:55:19;101111.16;;;23.68;43.85
48244;BME280;34053;51.088;6.572;2023-07-13T12:58:18;101109.84;;;23.74;42.61
48244;BME280;34053;51.088;6.572;2023-07-13T13:01:11;101116.91;;;23.86;43.46
48244;BME280;34053;51.088;6.572;2023-07-13T13:04:03;101108.09;;;23.62;42.63
48244;BME280;34053;51.088;6.572;2023-07-13T13:07:04;101111.56;;;23.86;43.56
48244;BME280;34053;51.088;6.572;2023-07-13T13:09:56;101112.41;;;23.76;42.52
48244;BME280;34053;51.088;6.572;2023-07-13T13:12:49;101106.75;;;24.03;42.74
48244;BME280;34053;51.088;6.572;2023-07-13T13:15:40;101107.38;;;24.07;42.36
48244;BME280;34053;51.088;6.572;2023-07-13T13:18:31;101100.66;;;24.12;42.11
48244;BME280;34053;51.088;6.572;2023-07-13T13:21:23;101104.81;;;24.05;42.39
48244;BME280;34053;51.088;6.572;2023-07-13T13:24:18;101105.66;;;24.05;42.42
48244;BME280;34053;51.088;6.572;2023-07-13T13:27:19;101108.72;;;24.24;42.18
48244;BME280;34053;51.088;6.572;2023-07-13T13:30:16;101114.19;;;24.56;41.25
48244;BME280;34053;51.088;6.572;2023-07-13T13:33:10;101096.03;;;24.26;38.88
48244;BME280;34053;51.088;6.572;2023-07-13T13:36:02;101106.41;;;24.42;38.87
48244;BME280;34053;51.088;6.572;2023-07-13T13:38:54;101103.72;;;24.53;38.60
48244;BME280;34053;51.088;6.572;2023-07-13T13:41:45;101106.78;;;24.48;39.07
48244;BME280;34053;51.088;6.572;2023-07-13T13:44:36;101102.25;;;24.49;40.06
48244;BME280;34053;51.088;6.572;2023-07-13T13:47:31;101098.44;;;24.86;39.98
48244;BME280;34053;51.088;6.572;2023-07-13T13:50:23;101102.38;;;24.81;39.34
48244;BME280;34053;51.088;6.572;2023-07-13T13:53:14;101096.66;;;24.75;39.61
48244;BME280;34053;51.088;6.572;2023-07-13T13:56:05;101103.59;;;24.55;39.26
48244;BME280;34053;51.088;6.572;2023-07-13T13:58:56;101104.16;;;24.92;39.68
48244;BME280;34053;51.088;6.572;2023-07-13T14:01:48;101104.25;;;25.02;38.82
48244;BME280;34053;51.088;6.572;2023-07-13T14:04:39;101104.78;;;24.96;39.25
48244;BME280;34053;51.088;6.572;2023-07-13T14:07:30;101108.66;;;24.92;39.69
48244;BME280;34053;51.088;6.572;2023-07-13T14:10:21;101112.53;;;25.10;39.64
48244;BME280;34053;51.088;6.572;2023-07-13T14:13:25;101104.53;;;24.99;39.60
48244;BME280;34053;51.088;6.572;2023-07-13T14:16:20;101104.22;;;25.13;40.03
48244;BME280;34053;51.088;6.572;2023-07-13T14:19:12;101099.16;;;24.99;39.56
48244;BME280;34053;51.088;6.572;2023-07-13T14:22:04;101102.47;;;24.80;38.94
48244;BME280;34053;51.088;6.572;2023-07-13T14:24:55;101098.28;;;24.98;38.99
48244;BME280;34053;51.088;6.572;2023-07-13T14:27:56;101109.44;;;24.82;40.07
48244;BME280;34053;51.088;6.572;2023-07-13T14:30:49;101102.25;;;24.72;39.74
48244;BME280;34053;51.088;6.572;2023-07-13T14:33:40;101107.25;;;24.76;39.63
48244;BME280;34053;51.088;6.572;2023-07-13T14:36:34;101107.97;;;24.78;40.18
48244;BME280;34053;51.088;6.572;2023-07-13T14:39:27;101106.50;;;24.51;40.01
48244;BME280;34053;51.088;6.572;2023-07-13T14:42:18;101116.38;;;24.05;40.53
48244;BME280;34053;51.088;6.572;2023-07-13T14:45:14;101123.59;;;24.16;40.31
48244;BME280;34053;51.088;6.572;2023-07-13T14:48:13;101112.03;;;24.27;39.93
48244;BME280;34053;51.088;6.572;2023-07-13T14:51:04;101120.88;;;24.05;40.53
48244;BME280;34053;51.088;6.572;2023-07-13T14:53:55;101137.69;;;23.96;40.90
48244;BME280;34053;51.088;6.572;2023-07-13T14:56:46;101132.03;;;23.87;42.25
48244;BME280;34053;51.088;6.572;2023-07-13T14:59:36;101133.75;;;23.88;42.83
48244;BME280;34053;51.088;6.572;2023-07-13T15:02:33;101148.41;;;23.36;44.26
48244;BME280;34053;51.088;6.572;2023-07-13T15:05:29;101153.81;;;23.47;44.36
48244;BME280;34053;51.088;6.572;2023-07-13T15:08:20;101158.75;;;22.79;46.23
48244;BME280;34053;51.088;6.572;2023-07-13T15:11:11;101155.88;;;23.06;46.03
48244;BME280;34053;51.088;6.572;2023-07-13T15:14:02;101164.53;;;23.23;45.57
48244;BME280;34053;51.088;6.572;2023-07-13T15:16:55;101155.41;;;22.88;46.96
48244;BME280;34053;51.088;6.572;2023-07-13T15:19:46;101166.59;;;23.06;46.99
48244;BME280;34053;51.088;6.572;2023-07-13T15:22:37;101168.28;;;22.31;49.36
48244;BME280;34053;51.088;6.572;2023-07-13T15:25:31;101181.22;;;22.38;49.48
48244;BME280;34053;51.088;6.572;2023-07-13T15:28:23;101173.06;;;22.78;48.01
48244;BME280;34053;51.088;6.572;2023-07-13T15:31:23;101181.41;;;22.86;47.93